sensor_id;sensor_type;location;lat;lon;timestamp;temperature;humidity
7366;DHT22;3723;52.220;8.792;2024-03-06T00:01:53;4.80;1.00
7366;DHT22;3723;52.220;8.792;2024-03-06T00:04:20;4.80;1.00
7366;DHT22;3723;52.220;8.792;2024-03-06T00:06:48;4.80;1.00
7366;DHT22;3723;52.220;8.792;2024-03-06T00:09:17;4.80;1.00
7366;DHT22;3723;52.220;8.792;2024-03-06T00:11:45;4.80;1.00
7366;DHT22;3723;52.220;8.792;2024-03-06T00:14:12;4.80;1.00
7366;DHT22;3723;52.220;8.792;2024-03-06T00:16:42;4.80;1.00
7366;DHT22;3723;52.220;8.792;2024-03-06T00:19:09;4.80;1.00
7366;DHT22;3723;52.220;8.792;2024-03-06T00:21:36;4.80;1.00
7366;DHT22;3723;52.220;8.792;2024-03-06T00:24:05;4.80;1.00
7366;DHT22;3723;52.220;8.792;2024-03-06T00:26:32;4.80;1.00
7366;DHT22;3723;52.220;8.792;2024-03-06T00:28:59;4.80;1.00
7366;DHT22;3723;52.220;8.792;2024-03-06T00:31:26;4.80;1.00
7366;DHT22;3723;52.220;8.792;2024-03-06T00:33:53;4.80;1.00
7366;DHT22;3723;52.220;8.792;2024-03-06T00:36:20;4.80;1.00
7366;DHT22;3723;52.220;8.792;2024-03-06T00:38:48;4.90;1.00
7366;DHT22;3723;52.220;8.792;2024-03-06T00:41:16;4.90;1.00
7366;DHT22;3723;52.220;8.792;2024-03-06T00:43:43;4.80;1.00
7366;DHT22;3723;52.220;8.792;2024-03-06T00:46:10;4.90;1.00
7366;DHT22;3723;52.220;8.792;2024-03-06T00:48:37;4.90;1.00
7366;DHT22;3723;52.220;8.792;2024-03-06T00:51:04;4.90;1.00
7366;DHT22;3723;52.220;8.792;2024-03-06T00:53:32;4.90;1.00
7366;DHT22;3723;52.220;8.792;2024-03-06T00:56:02;4.90;1.00
7366;DHT22;3723;52.220;8.792;2024-03-06T00:58:31;4.90;1.00
7366;DHT22;3723;52.220;8.792;2024-03-06T01:00:57;4.90;1.00
7366;DHT22;3723;52.220;8.792;2024-03-06T01:03:25;4.90;1.00
7366;DHT22;3723;52.220;8.792;2024-03-06T01:05:52;4.90;1.00
7366;DHT22;3723;52.220;8.792;2024-03-06T01:08:21;4.90;1.00
7366;DHT22;3723;52.220;8.792;2024-03-06T01:10:50;4.90;1.00
7366;DHT22;3723;52.220;8.792;2024-03-06T01:13:17;4.90;1.00
7366;DHT22;3723;52.220;8.792;2024-03-06T01:15:45;4.90;1.00
7366;DHT22;3723;52.220;8.792;2024-03-06T01:18:13;4.90;1.00
7366;DHT22;3723;52.220;8.792;2024-03-06T01:20:40;4.90;1.00
7366;DHT22;3723;52.220;8.792;2024-03-06T01:23:07;4.90;1.00
7366;DHT22;3723;52.220;8.792;2024-03-06T01:25:34;4.90;1.00
7366;DHT22;3723;52.220;8.792;2024-03-06T01:28:02;4.90;1.00
7366;DHT22;3723;52.220;8.792;2024-03-06T01:30:29;4.90;1.00
7366;DHT22;3723;52.220;8.792;2024-03-06T01:33:00;4.90;1.00
7366;DHT22;3723;52.220;8.792;2024-03-06T01:35:27;4.90;1.00
7366;DHT22;3723;52.220;8.792;2024-03-06T01:37:53;4.90;1.00
7366;DHT22;3723;52.220;8.792;2024-03-06T01:40:20;4.90;1.00
7366;DHT22;3723;52.220;8.792;2024-03-06T01:42:48;4.90;1.00
7366;DHT22;3723;52.220;8.792;2024-03-06T01:45:15;4.90;1.00
7366;DHT22;3723;52.220;8.792;2024-03-06T01:47:43;4.90;1.00
7366;DHT22;3723;52.220;8.792;2024-03-06T01:50:12;4.90;1.00
7366;DHT22;3723;52.220;8.792;2024-03-06T01:52:40;4.90;1.00
7366;DHT22;3723;52.220;8.792;2024-03-06T01:55:09;4.90;1.00
7366;DHT22;3723;52.220;8.792;2024-03-06T01:57:39;4.90;1.00
7366;DHT22;3723;52.220;8.792;2024-03-06T02:00:10;4.90;1.00
7366;DHT22;3723;52.220;8.792;2024-03-06T02:02:40;4.90;1.00
7366;DHT22;3723;52.220;8.792;2024-03-06T02:05:08;5.00;1.00
7366;DHT22;3723;52.220;8.792;2024-03-06T02:07:37;4.90;1.00
7366;DHT22;3723;52.220;8.792;2024-03-06T02:10:07;4.90;1.00
7366;DHT22;3723;52.220;8.792;2024-03-06T02:12:35;4.90;1.00
7366;DHT22;3723;52.220;8.792;2024-03-06T02:15:03;4.90;1.00
7366;DHT22;3723;52.220;8.792;2024-03-06T02:17:30;4.90;1.00
7366;DHT22;3723;52.220;8.792;2024-03-06T02:19:57;4.90;1.00
7366;DHT22;3723;52.220;8.792;2024-03-06T02:22:26;5.00;1.00
7366;DHT22;3723;52.220;8.792;2024-03-06T02:24:54;4.90;1.00
7366;DHT22;3723;52.220;8.792;2024-03-06T02:27:21;4.90;1.00
7366;DHT22;3723;52.220;8.792;2024-03-06T02:29:48;4.90;1.00
7366;DHT22;3723;52.220;8.792;2024-03-06T02:32:15;4.90;1.00
7366;DHT22;3723;52.220;8.792;2024-03-06T02:34:43;4.90;1.00
7366;DHT22;3723;52.220;8.792;2024-03-06T02:37:10;4.90;1.00
7366;DHT22;3723;52.220;8.792;2024-03-06T02:39:39;4.80;1.00
7366;DHT22;3723;52.220;8.792;2024-03-06T02:42:06;4.80;1.00
7366;DHT22;3723;52.220;8.792;2024-03-06T02:44:33;4.80;1.00
7366;DHT22;3723;52.220;8.792;2024-03-06T02:47:00;4.80;1.00
7366;DHT22;3723;52.220;8.792;2024-03-06T02:49:27;4.80;1.00
7366;DHT22;3723;52.220;8.792;2024-03-06T02:51:54;4.80;1.00
7366;DHT22;3723;52.220;8.792;2024-03-06T02:54:21;4.80;1.00
7366;DHT22;3723;52.220;8.792;2024-03-06T02:56:51;4.80;1.00
7366;DHT22;3723;52.220;8.792;2024-03-06T02:59:19;4.80;1.00
7366;DHT22;3723;52.220;8.792;2024-03-06T03:01:46;4.80;1.00
7366;DHT22;3723;52.220;8.792;2024-03-06T03:04:13;4.80;1.00
7366;DHT22;3723;52.220;8.792;2024-03-06T03:06:40;4.80;1.00
7366;DHT22;3723;52.220;8.792;2024-03-06T03:09:07;4.80;1.00
7366;DHT22;3723;52.220;8.792;2024-03-06T03:11:37;4.80;1.00
7366;DHT22;3723;52.220;8.792;2024-03-06T03:14:05;4.80;1.00
7366;DHT22;3723;52.220;8.792;2024-03-06T03:16:32;4.80;1.00
7366;DHT22;3723;52.220;8.792;2024-03-06T03:19:01;4.80;1.00
7366;DHT22;3723;52.220;8.792;2024-03-06T03:21:29;4.80;1.00
7366;DHT22;3723;52.220;8.792;2024-03-06T03:23:56;4.80;1.00
7366;DHT22;3723;52.220;8.792;2024-03-06T03:26:23;4.80;1.00
7366;DHT22;3723;52.220;8.792;2024-03-06T03:28:50;4.80;1.00
7366;DHT22;3723;52.220;8.792;2024-03-06T03:31:19;4.80;1.00
7366;DHT22;3723;52.220;8.792;2024-03-06T03:33:48;4.80;1.00
7366;DHT22;3723;52.220;8.792;2024-03-06T03:36:15;4.80;1.00
7366;DHT22;3723;52.220;8.792;2024-03-06T03:38:42;4.80;1.00
7366;DHT22;3723;52.220;8.792;2024-03-06T03:41:09;4.80;1.00
7366;DHT22;3723;52.220;8.792;2024-03-06T03:43:36;4.80;1.00
7366;DHT22;3723;52.220;8.792;2024-03-06T03:46:05;4.80;1.00
7366;DHT22;3723;52.220;8.792;2024-03-06T03:48:34;4.80;1.00
7366;DHT22;3723;52.220;8.792;2024-03-06T03:51:02;4.80;1.00
7366;DHT22;3723;52.220;8.792;2024-03-06T03:53:31;4.90;1.00
7366;DHT22;3723;52.220;8.792;2024-03-06T03:55:58;4.80;1.00
7366;DHT22;3723;52.220;8.792;2024-03-06T03:58:25;4.80;1.00
7366;DHT22;3723;52.220;8.792;2024-03-06T04:00:54;4.80;1.00
7366;DHT22;3723;52.220;8.792;2024-03-06T04:03:21;4.90;1.00
7366;DHT22;3723;52.220;8.792;2024-03-06T04:05:49;4.90;1.00
7366;DHT22;3723;52.220;8.792;2024-03-06T04:08:16;4.80;1.00
7366;DHT22;3723;52.220;8.792;2024-03-06T04:10:44;4.80;1.00
7366;DHT22;3723;52.220;8.792;2024-03-06T04:13:11;4.90;1.00
7366;DHT22;3723;52.220;8.792;2024-03-06T04:15:38;4.90;1.00
7366;DHT22;3723;52.220;8.792;2024-03-06T04:18:05;4.90;1.00
7366;DHT22;3723;52.220;8.792;2024-03-06T04:20:32;4.90;1.00
7366;DHT22;3723;52.220;8.792;2024-03-06T04:23:01;4.90;1.00
7366;DHT22;3723;52.220;8.792;2024-03-06T04:25:28;4.90;1.00
7366;DHT22;3723;52.220;8.792;2024-03-06T04:27:55;4.90;1.00
7366;DHT22;3723;52.220;8.792;2024-03-06T04:30:21;4.90;1.00
7366;DHT22;3723;52.220;8.792;2024-03-06T04:32:48;4.90;1.00
7366;DHT22;3723;52.220;8.792;2024-03-06T04:35:15;4.90;1.00
7366;DHT22;3723;52.220;8.792;2024-03-06T04:37:42;4.90;1.00
7366;DHT22;3723;52.220;8.792;2024-03-06T04:40:11;4.90;1.00
7366;DHT22;3723;52.220;8.792;2024-03-06T04:42:40;4.90;1.00
7366;DHT22;3723;52.220;8.792;2024-03-06T04:45:10;4.90;1.00
7366;DHT22;3723;52.220;8.792;2024-03-06T04:47:38;4.90;1.00
7366;DHT22;3723;52.220;8.792;2024-03-06T04:50:08;4.90;1.00
7366;DHT22;3723;52.220;8.792;2024-03-06T04:52:35;4.90;1.00
7366;DHT22;3723;52.220;8.792;2024-03-06T04:55:03;4.90;1.00
7366;DHT22;3723;52.220;8.792;2024-03-06T04:57:31;4.90;1.00
7366;DHT22;3723;52.220;8.792;2024-03-06T04:59:58;4.90;1.00
7366;DHT22;3723;52.220;8.792;2024-03-06T05:02:25;4.90;1.00
7366;DHT22;3723;52.220;8.792;2024-03-06T05:04:52;4.90;1.00
7366;DHT22;3723;52.220;8.792;2024-03-06T05:07:19;5.00;1.00
7366;DHT22;3723;52.220;8.792;2024-03-06T05:09:46;4.90;1.00
7366;DHT22;3723;52.220;8.792;2024-03-06T05:12:13;4.90;1.00
7366;DHT22;3723;52.220;8.792;2024-03-06T05:14:41;4.90;1.00
7366;DHT22;3723;52.220;8.792;2024-03-06T05:17:08;4.90;1.00
7366;DHT22;3723;52.220;8.792;2024-03-06T05:19:36;4.90;1.00
7366;DHT22;3723;52.220;8.792;2024-03-06T05:22:03;4.90;1.00
7366;DHT22;3723;52.220;8.792;2024-03-06T05:24:31;4.90;1.00
7366;DHT22;3723;52.220;8.792;2024-03-06T05:26:58;4.90;1.00
7366;DHT22;3723;52.220;8.792;2024-03-06T05:29:25;5.00;1.00
7366;DHT22;3723;52.220;8.792;2024-03-06T05:31:53;5.00;1.00
7366;DHT22;3723;52.220;8.792;2024-03-06T05:34:21;5.00;1.00
7366;DHT22;3723;52.220;8.792;2024-03-06T05:36:48;5.00;1.00
7366;DHT22;3723;52.220;8.792;2024-03-06T05:39:15;5.00;1.00
7366;DHT22;3723;52.220;8.792;2024-03-06T05:41:43;5.00;1.00
7366;DHT22;3723;52.220;8.792;2024-03-06T05:44:10;5.00;1.00
7366;DHT22;3723;52.220;8.792;2024-03-06T05:46:37;5.00;1.00
7366;DHT22;3723;52.220;8.792;2024-03-06T05:49:06;5.00;1.00
7366;DHT22;3723;52.220;8.792;2024-03-06T05:51:33;5.00;1.00
7366;DHT22;3723;52.220;8.792;2024-03-06T05:54:00;5.00;1.00
7366;DHT22;3723;52.220;8.792;2024-03-06T05:56:26;5.00;1.00
7366;DHT22;3723;52.220;8.792;2024-03-06T05:58:53;5.00;1.00
7366;DHT22;3723;52.220;8.792;2024-03-06T06:01:20;5.00;1.00
7366;DHT22;3723;52.220;8.792;2024-03-06T06:03:50;5.00;1.00
7366;DHT22;3723;52.220;8.792;2024-03-06T06:06:18;5.00;1.00
7366;DHT22;3723;52.220;8.792;2024-03-06T06:08:46;5.00;1.00
7366;DHT22;3723;52.220;8.792;2024-03-06T06:11:13;5.00;1.00
7366;DHT22;3723;52.220;8.792;2024-03-06T06:13:40;5.10;1.00
7366;DHT22;3723;52.220;8.792;2024-03-06T06:16:07;5.10;1.00
7366;DHT22;3723;52.220;8.792;2024-03-06T06:18:34;5.10;1.00
7366;DHT22;3723;52.220;8.792;2024-03-06T06:21:01;5.10;1.00
7366;DHT22;3723;52.220;8.792;2024-03-06T06:23:34;5.10;1.00
7366;DHT22;3723;52.220;8.792;2024-03-06T06:26:01;5.10;1.00
7366;DHT22;3723;52.220;8.792;2024-03-06T06:28:28;5.10;1.00
7366;DHT22;3723;52.220;8.792;2024-03-06T06:30:55;5.10;1.00
7366;DHT22;3723;52.220;8.792;2024-03-06T06:33:21;5.10;1.00
7366;DHT22;3723;52.220;8.792;2024-03-06T06:35:48;5.10;1.00
7366;DHT22;3723;52.220;8.792;2024-03-06T06:38:17;5.20;1.00
7366;DHT22;3723;52.220;8.792;2024-03-06T06:40:47;5.20;1.00
7366;DHT22;3723;52.220;8.792;2024-03-06T06:43:14;5.20;1.00
7366;DHT22;3723;52.220;8.792;2024-03-06T06:45:41;5.20;1.00
7366;DHT22;3723;52.220;8.792;2024-03-06T06:48:08;5.20;1.00
7366;DHT22;3723;52.220;8.792;2024-03-06T06:50:35;5.20;1.00
7366;DHT22;3723;52.220;8.792;2024-03-06T06:53:02;5.20;1.00
7366;DHT22;3723;52.220;8.792;2024-03-06T06:55:29;5.30;1.00
7366;DHT22;3723;52.220;8.792;2024-03-06T06:57:57;5.30;1.00
7366;DHT22;3723;52.220;8.792;2024-03-06T07:00:24;5.30;1.00
7366;DHT22;3723;52.220;8.792;2024-03-06T07:02:51;5.30;1.00
7366;DHT22;3723;52.220;8.792;2024-03-06T07:05:18;5.40;1.00
7366;DHT22;3723;52.220;8.792;2024-03-06T07:07:45;5.40;1.00
7366;DHT22;3723;52.220;8.792;2024-03-06T07:10:13;5.40;1.00
7366;DHT22;3723;52.220;8.792;2024-03-06T07:12:40;5.40;1.00
7366;DHT22;3723;52.220;8.792;2024-03-06T07:15:09;5.50;1.00
7366;DHT22;3723;52.220;8.792;2024-03-06T07:17:35;5.50;1.00
7366;DHT22;3723;52.220;8.792;2024-03-06T07:20:03;5.50;1.00
7366;DHT22;3723;52.220;8.792;2024-03-06T07:22:32;5.60;1.00
7366;DHT22;3723;52.220;8.792;2024-03-06T07:24:59;5.60;1.00
7366;DHT22;3723;52.220;8.792;2024-03-06T07:27:26;5.60;1.00
7366;DHT22;3723;52.220;8.792;2024-03-06T07:29:53;5.60;1.00
7366;DHT22;3723;52.220;8.792;2024-03-06T07:32:22;5.70;1.00
7366;DHT22;3723;52.220;8.792;2024-03-06T07:34:49;5.70;1.00
7366;DHT22;3723;52.220;8.792;2024-03-06T07:37:18;5.80;1.00
7366;DHT22;3723;52.220;8.792;2024-03-06T07:39:45;5.80;1.00
7366;DHT22;3723;52.220;8.792;2024-03-06T07:42:12;5.80;1.00
7366;DHT22;3723;52.220;8.792;2024-03-06T07:44:42;5.80;1.00
7366;DHT22;3723;52.220;8.792;2024-03-06T07:47:09;5.80;1.00
7366;DHT22;3723;52.220;8.792;2024-03-06T07:49:37;5.80;1.00
7366;DHT22;3723;52.220;8.792;2024-03-06T07:52:05;5.80;1.00
7366;DHT22;3723;52.220;8.792;2024-03-06T07:54:31;5.80;1.00
7366;DHT22;3723;52.220;8.792;2024-03-06T07:56:59;5.90;1.00
7366;DHT22;3723;52.220;8.792;2024-03-06T07:59:26;6.00;1.00
7366;DHT22;3723;52.220;8.792;2024-03-06T08:01:53;6.00;1.00
7366;DHT22;3723;52.220;8.792;2024-03-06T08:04:21;6.10;1.00
7366;DHT22;3723;52.220;8.792;2024-03-06T08:06:50;6.10;1.00
7366;DHT22;3723;52.220;8.792;2024-03-06T08:09:17;6.20;1.00
7366;DHT22;3723;52.220;8.792;2024-03-06T08:11:45;6.20;1.00
7366;DHT22;3723;52.220;8.792;2024-03-06T08:14:12;6.30;1.00
7366;DHT22;3723;52.220;8.792;2024-03-06T08:16:41;6.20;1.00
7366;DHT22;3723;52.220;8.792;2024-03-06T08:19:08;6.20;1.00
7366;DHT22;3723;52.220;8.792;2024-03-06T08:21:35;6.20;1.00
7366;DHT22;3723;52.220;8.792;2024-03-06T08:24:03;6.10;1.00
7366;DHT22;3723;52.220;8.792;2024-03-06T08:26:30;6.10;1.00
7366;DHT22;3723;52.220;8.792;2024-03-06T08:28:57;6.10;1.00
7366;DHT22;3723;52.220;8.792;2024-03-06T08:31:24;6.10;1.00
7366;DHT22;3723;52.220;8.792;2024-03-06T08:33:56;6.10;1.00
7366;DHT22;3723;52.220;8.792;2024-03-06T08:36:23;6.20;1.00
7366;DHT22;3723;52.220;8.792;2024-03-06T08:38:50;6.30;1.00
7366;DHT22;3723;52.220;8.792;2024-03-06T08:41:18;6.30;1.00
7366;DHT22;3723;52.220;8.792;2024-03-06T08:43:47;6.40;1.00
7366;DHT22;3723;52.220;8.792;2024-03-06T08:46:14;6.40;1.00
7366;DHT22;3723;52.220;8.792;2024-03-06T08:48:41;6.50;1.00
7366;DHT22;3723;52.220;8.792;2024-03-06T08:51:09;6.50;1.00
7366;DHT22;3723;52.220;8.792;2024-03-06T08:53:37;6.50;1.00
7366;DHT22;3723;52.220;8.792;2024-03-06T08:56:05;6.60;1.00
7366;DHT22;3723;52.220;8.792;2024-03-06T08:58:35;6.70;1.00
7366;DHT22;3723;52.220;8.792;2024-03-06T09:01:02;6.80;1.00
7366;DHT22;3723;52.220;8.792;2024-03-06T09:03:30;6.80;1.00
7366;DHT22;3723;52.220;8.792;2024-03-06T09:05:58;6.80;1.00
7366;DHT22;3723;52.220;8.792;2024-03-06T09:08:25;6.80;1.00
7366;DHT22;3723;52.220;8.792;2024-03-06T09:10:52;6.80;1.00
7366;DHT22;3723;52.220;8.792;2024-03-06T09:13:19;6.80;1.00
7366;DHT22;3723;52.220;8.792;2024-03-06T09:15:47;6.80;1.00
7366;DHT22;3723;52.220;8.792;2024-03-06T09:18:14;6.70;1.00
7366;DHT22;3723;52.220;8.792;2024-03-06T09:20:42;6.80;1.00
7366;DHT22;3723;52.220;8.792;2024-03-06T09:23:09;6.70;1.00
7366;DHT22;3723;52.220;8.792;2024-03-06T09:25:37;6.70;1.00
7366;DHT22;3723;52.220;8.792;2024-03-06T09:28:08;6.70;1.00
7366;DHT22;3723;52.220;8.792;2024-03-06T09:30:35;6.70;1.00
7366;DHT22;3723;52.220;8.792;2024-03-06T09:33:05;6.70;1.00
7366;DHT22;3723;52.220;8.792;2024-03-06T09:35:33;6.60;1.00
7366;DHT22;3723;52.220;8.792;2024-03-06T09:38:01;6.60;1.00
7366;DHT22;3723;52.220;8.792;2024-03-06T09:40:29;6.60;1.00
7366;DHT22;3723;52.220;8.792;2024-03-06T09:42:56;6.60;1.00
7366;DHT22;3723;52.220;8.792;2024-03-06T09:45:23;6.60;1.00
7366;DHT22;3723;52.220;8.792;2024-03-06T09:47:50;6.60;1.00
7366;DHT22;3723;52.220;8.792;2024-03-06T09:50:22;6.70;1.00
7366;DHT22;3723;52.220;8.792;2024-03-06T09:52:51;6.70;1.00
7366;DHT22;3723;52.220;8.792;2024-03-06T09:55:21;6.80;1.00
7366;DHT22;3723;52.220;8.792;2024-03-06T09:57:50;6.90;1.00
7366;DHT22;3723;52.220;8.792;2024-03-06T10:00:18;6.90;1.00
7366;DHT22;3723;52.220;8.792;2024-03-06T10:02:51;7.00;1.00
7366;DHT22;3723;52.220;8.792;2024-03-06T10:05:23;7.10;1.00
7366;DHT22;3723;52.220;8.792;2024-03-06T10:07:51;7.10;1.00
7366;DHT22;3723;52.220;8.792;2024-03-06T10:10:19;7.20;1.00
7366;DHT22;3723;52.220;8.792;2024-03-06T10:12:48;7.30;1.00
7366;DHT22;3723;52.220;8.792;2024-03-06T10:15:16;7.30;1.00
7366;DHT22;3723;52.220;8.792;2024-03-06T10:17:43;7.30;1.00
7366;DHT22;3723;52.220;8.792;2024-03-06T10:20:19;7.30;1.00
7366;DHT22;3723;52.220;8.792;2024-03-06T10:22:49;7.40;1.00
7366;DHT22;3723;52.220;8.792;2024-03-06T10:25:18;7.40;1.00
7366;DHT22;3723;52.220;8.792;2024-03-06T10:27:45;7.50;1.00
7366;DHT22;3723;52.220;8.792;2024-03-06T10:30:13;7.70;1.00
7366;DHT22;3723;52.220;8.792;2024-03-06T10:32:42;7.70;1.00
7366;DHT22;3723;52.220;8.792;2024-03-06T10:35:18;7.90;1.00
7366;DHT22;3723;52.220;8.792;2024-03-06T10:37:46;7.90;1.00
7366;DHT22;3723;52.220;8.792;2024-03-06T10:40:15;7.90;1.00
7366;DHT22;3723;52.220;8.792;2024-03-06T10:42:45;8.00;1.00
7366;DHT22;3723;52.220;8.792;2024-03-06T10:45:13;8.00;99.90
7366;DHT22;3723;52.220;8.792;2024-03-06T10:47:41;8.10;99.90
7366;DHT22;3723;52.220;8.792;2024-03-06T10:50:35;8.20;99.90
7366;DHT22;3723;52.220;8.792;2024-03-06T10:53:04;8.20;99.90
7366;DHT22;3723;52.220;8.792;2024-03-06T10:55:42;8.20;99.90
7366;DHT22;3723;52.220;8.792;2024-03-06T10:58:11;8.10;99.90
7366;DHT22;3723;52.220;8.792;2024-03-06T11:00:47;8.20;99.90
7366;DHT22;3723;52.220;8.792;2024-03-06T11:03:15;8.20;99.90
7366;DHT22;3723;52.220;8.792;2024-03-06T11:05:44;8.20;99.90
7366;DHT22;3723;52.220;8.792;2024-03-06T11:08:15;8.30;99.90
7366;DHT22;3723;52.220;8.792;2024-03-06T11:10:43;8.40;99.90
7366;DHT22;3723;52.220;8.792;2024-03-06T11:13:22;8.60;99.90
7366;DHT22;3723;52.220;8.792;2024-03-06T11:15:50;8.70;99.90
7366;DHT22;3723;52.220;8.792;2024-03-06T11:18:41;8.90;99.90
7366;DHT22;3723;52.220;8.792;2024-03-06T11:21:28;8.90;99.90
7366;DHT22;3723;52.220;8.792;2024-03-06T11:24:20;8.80;99.90
7366;DHT22;3723;52.220;8.792;2024-03-06T11:26:50;8.80;99.90
7366;DHT22;3723;52.220;8.792;2024-03-06T11:29:18;8.80;99.90
7366;DHT22;3723;52.220;8.792;2024-03-06T11:32:05;8.80;99.90
7366;DHT22;3723;52.220;8.792;2024-03-06T11:34:36;8.80;99.90
7366;DHT22;3723;52.220;8.792;2024-03-06T11:37:04;8.90;99.90
7366;DHT22;3723;52.220;8.792;2024-03-06T11:39:37;9.00;99.90
7366;DHT22;3723;52.220;8.792;2024-03-06T11:42:06;9.00;99.90
7366;DHT22;3723;52.220;8.792;2024-03-06T11:44:36;9.00;99.90
7366;DHT22;3723;52.220;8.792;2024-03-06T11:47:04;9.00;99.90
7366;DHT22;3723;52.220;8.792;2024-03-06T11:49:34;9.00;99.90
7366;DHT22;3723;52.220;8.792;2024-03-06T11:52:04;9.00;99.90
7366;DHT22;3723;52.220;8.792;2024-03-06T11:54:33;9.00;99.90
7366;DHT22;3723;52.220;8.792;2024-03-06T11:57:11;9.00;99.90
7366;DHT22;3723;52.220;8.792;2024-03-06T11:59:41;9.00;99.90
7366;DHT22;3723;52.220;8.792;2024-03-06T12:02:10;8.90;99.90
7366;DHT22;3723;52.220;8.792;2024-03-06T12:04:38;8.90;99.90
7366;DHT22;3723;52.220;8.792;2024-03-06T12:07:05;8.90;99.90
7366;DHT22;3723;52.220;8.792;2024-03-06T12:09:33;8.90;99.90
7366;DHT22;3723;52.220;8.792;2024-03-06T12:12:01;8.90;99.90
7366;DHT22;3723;52.220;8.792;2024-03-06T12:14:31;8.70;99.90
7366;DHT22;3723;52.220;8.792;2024-03-06T12:16:59;8.60;99.90
7366;DHT22;3723;52.220;8.792;2024-03-06T12:19:32;8.50;99.90
7366;DHT22;3723;52.220;8.792;2024-03-06T12:22:00;8.50;99.90
7366;DHT22;3723;52.220;8.792;2024-03-06T12:24:27;8.70;99.90
7366;DHT22;3723;52.220;8.792;2024-03-06T12:27:00;8.80;99.90
7366;DHT22;3723;52.220;8.792;2024-03-06T12:29:30;8.90;99.90
7366;DHT22;3723;52.220;8.792;2024-03-06T12:31:58;8.90;99.90
7366;DHT22;3723;52.220;8.792;2024-03-06T12:34:25;9.10;99.90
7366;DHT22;3723;52.220;8.792;2024-03-06T12:36:54;9.20;99.90
7366;DHT22;3723;52.220;8.792;2024-03-06T12:39:23;9.20;99.90
7366;DHT22;3723;52.220;8.792;2024-03-06T12:41:50;9.30;99.90
7366;DHT22;3723;52.220;8.792;2024-03-06T12:44:19;9.50;99.90
7366;DHT22;3723;52.220;8.792;2024-03-06T12:46:47;9.80;99.90
7366;DHT22;3723;52.220;8.792;2024-03-06T12:49:16;10.00;99.90
7366;DHT22;3723;52.220;8.792;2024-03-06T12:51:44;10.10;99.90
7366;DHT22;3723;52.220;8.792;2024-03-06T12:54:11;10.10;99.90
7366;DHT22;3723;52.220;8.792;2024-03-06T12:56:38;10.00;99.90
7366;DHT22;3723;52.220;8.792;2024-03-06T12:59:06;9.90;99.90
7366;DHT22;3723;52.220;8.792;2024-03-06T13:01:34;9.80;99.90
7366;DHT22;3723;52.220;8.792;2024-03-06T13:04:03;9.60;99.90
7366;DHT22;3723;52.220;8.792;2024-03-06T13:06:31;9.60;99.90
7366;DHT22;3723;52.220;8.792;2024-03-06T13:08:59;9.80;99.90
7366;DHT22;3723;52.220;8.792;2024-03-06T13:11:29;9.90;99.90
7366;DHT22;3723;52.220;8.792;2024-03-06T13:13:56;10.20;99.90
7366;DHT22;3723;52.220;8.792;2024-03-06T13:16:25;10.30;99.90
7366;DHT22;3723;52.220;8.792;2024-03-06T13:18:52;10.40;99.90
7366;DHT22;3723;52.220;8.792;2024-03-06T13:21:23;10.60;99.90
7366;DHT22;3723;52.220;8.792;2024-03-06T13:23:52;10.60;99.90
7366;DHT22;3723;52.220;8.792;2024-03-06T13:26:19;10.70;99.90
7366;DHT22;3723;52.220;8.792;2024-03-06T13:28:46;10.90;99.90
7366;DHT22;3723;52.220;8.792;2024-03-06T13:31:13;11.10;99.90
7366;DHT22;3723;52.220;8.792;2024-03-06T13:33:40;11.40;99.90
7366;DHT22;3723;52.220;8.792;2024-03-06T13:36:08;11.50;99.90
7366;DHT22;3723;52.220;8.792;2024-03-06T13:38:37;11.70;99.90
7366;DHT22;3723;52.220;8.792;2024-03-06T13:41:05;11.70;99.90
7366;DHT22;3723;52.220;8.792;2024-03-06T13:43:31;11.80;99.90
7366;DHT22;3723;52.220;8.792;2024-03-06T13:45:58;11.80;99.90
7366;DHT22;3723;52.220;8.792;2024-03-06T13:48:25;12.00;99.90
7366;DHT22;3723;52.220;8.792;2024-03-06T13:50:53;12.00;99.90
7366;DHT22;3723;52.220;8.792;2024-03-06T13:53:21;11.90;99.90
7366;DHT22;3723;52.220;8.792;2024-03-06T13:55:51;11.80;99.90
7366;DHT22;3723;52.220;8.792;2024-03-06T13:58:19;11.70;99.90
7366;DHT22;3723;52.220;8.792;2024-03-06T14:00:45;11.50;99.90
7366;DHT22;3723;52.220;8.792;2024-03-06T14:03:12;11.40;99.90
7366;DHT22;3723;52.220;8.792;2024-03-06T14:05:39;11.30;99.90
7366;DHT22;3723;52.220;8.792;2024-03-06T14:08:06;11.10;99.90
7366;DHT22;3723;52.220;8.792;2024-03-06T14:10:37;11.10;99.90
7366;DHT22;3723;52.220;8.792;2024-03-06T14:13:06;11.10;99.90
7366;DHT22;3723;52.220;8.792;2024-03-06T14:15:34;11.20;99.90
7366;DHT22;3723;52.220;8.792;2024-03-06T14:18:01;11.30;99.90
7366;DHT22;3723;52.220;8.792;2024-03-06T14:20:30;11.20;99.90
7366;DHT22;3723;52.220;8.792;2024-03-06T14:22:57;11.10;99.90
7366;DHT22;3723;52.220;8.792;2024-03-06T14:25:23;10.90;99.90
7366;DHT22;3723;52.220;8.792;2024-03-06T14:27:50;10.90;99.90
7366;DHT22;3723;52.220;8.792;2024-03-06T14:30:18;10.70;99.90
7366;DHT22;3723;52.220;8.792;2024-03-06T14:32:46;10.50;99.90
7366;DHT22;3723;52.220;8.792;2024-03-06T14:35:13;10.40;99.90
7366;DHT22;3723;52.220;8.792;2024-03-06T14:37:40;10.40;99.90
7366;DHT22;3723;52.220;8.792;2024-03-06T14:40:08;10.30;99.90
7366;DHT22;3723;52.220;8.792;2024-03-06T14:42:35;10.30;99.90
7366;DHT22;3723;52.220;8.792;2024-03-06T14:45:02;10.10;99.90
7366;DHT22;3723;52.220;8.792;2024-03-06T14:47:33;10.10;99.90
7366;DHT22;3723;52.220;8.792;2024-03-06T14:49:59;10.10;99.90
7366;DHT22;3723;52.220;8.792;2024-03-06T14:52:27;10.00;99.90
7366;DHT22;3723;52.220;8.792;2024-03-06T14:54:53;10.00;99.90
7366;DHT22;3723;52.220;8.792;2024-03-06T14:57:20;10.10;99.90
7366;DHT22;3723;52.220;8.792;2024-03-06T14:59:49;10.20;99.90
7366;DHT22;3723;52.220;8.792;2024-03-06T15:02:16;10.20;99.90
7366;DHT22;3723;52.220;8.792;2024-03-06T15:04:44;10.20;99.90
7366;DHT22;3723;52.220;8.792;2024-03-06T15:07:12;10.20;99.90
7366;DHT22;3723;52.220;8.792;2024-03-06T15:09:39;10.20;99.90
7366;DHT22;3723;52.220;8.792;2024-03-06T15:12:07;10.10;99.90
7366;DHT22;3723;52.220;8.792;2024-03-06T15:14:34;10.10;99.90
7366;DHT22;3723;52.220;8.792;2024-03-06T15:17:01;10.10;99.90
7366;DHT22;3723;52.220;8.792;2024-03-06T15:19:28;10.10;99.90
7366;DHT22;3723;52.220;8.792;2024-03-06T15:21:56;10.10;99.90
7366;DHT22;3723;52.220;8.792;2024-03-06T15:24:28;10.10;99.90
7366;DHT22;3723;52.220;8.792;2024-03-06T15:27:00;10.00;99.90
7366;DHT22;3723;52.220;8.792;2024-03-06T15:29:27;10.00;99.90
7366;DHT22;3723;52.220;8.792;2024-03-06T15:31:53;9.90;99.90
7366;DHT22;3723;52.220;8.792;2024-03-06T15:34:20;9.80;99.90
7366;DHT22;3723;52.220;8.792;2024-03-06T15:36:47;9.80;99.90
7366;DHT22;3723;52.220;8.792;2024-03-06T15:39:15;9.80;99.90
7366;DHT22;3723;52.220;8.792;2024-03-06T15:41:42;9.90;99.90
7366;DHT22;3723;52.220;8.792;2024-03-06T15:44:09;9.90;99.90
7366;DHT22;3723;52.220;8.792;2024-03-06T15:46:36;9.80;99.90
7366;DHT22;3723;52.220;8.792;2024-03-06T15:49:18;9.70;99.90
7366;DHT22;3723;52.220;8.792;2024-03-06T15:51:45;9.50;99.90
7366;DHT22;3723;52.220;8.792;2024-03-06T15:54:12;9.40;99.90
7366;DHT22;3723;52.220;8.792;2024-03-06T15:56:41;9.10;99.90
7366;DHT22;3723;52.220;8.792;2024-03-06T15:59:07;9.00;99.90
7366;DHT22;3723;52.220;8.792;2024-03-06T16:01:34;9.00;99.90
7366;DHT22;3723;52.220;8.792;2024-03-06T16:04:02;8.90;99.90
7366;DHT22;3723;52.220;8.792;2024-03-06T16:06:30;8.80;99.90
7366;DHT22;3723;52.220;8.792;2024-03-06T16:08:57;8.80;99.90
7366;DHT22;3723;52.220;8.792;2024-03-06T16:11:26;8.70;99.90
7366;DHT22;3723;52.220;8.792;2024-03-06T16:13:55;8.80;99.90
7366;DHT22;3723;52.220;8.792;2024-03-06T16:16:24;8.70;99.90
7366;DHT22;3723;52.220;8.792;2024-03-06T16:18:51;8.70;99.90
7366;DHT22;3723;52.220;8.792;2024-03-06T16:21:19;8.70;99.90
7366;DHT22;3723;52.220;8.792;2024-03-06T16:23:47;8.70;99.90
7366;DHT22;3723;52.220;8.792;2024-03-06T16:26:15;8.60;99.90
7366;DHT22;3723;52.220;8.792;2024-03-06T16:28:42;8.70;99.90
7366;DHT22;3723;52.220;8.792;2024-03-06T16:31:11;8.60;99.90
7366;DHT22;3723;52.220;8.792;2024-03-06T16:33:39;8.60;99.90